Snoqualmie River: North Fork station

back to: Snoqualmie river
North Fork station Summary - (NOAA Hydrograph: SNQW1)
Latest reading:
Mon06/25 09:15 am 3.39 ft 407 cfs (-16/hr)
Past 24hr max:
Mon06/25 08:45 am 3.4 ft 411 cfs
Forecasted crests: (published Mon 06/25/18 09:06 am)
Mon06/25 11:00 pm 3.49 ft 446 cfs
Fri06/29 11:00 am 2.88 ft 239 cfs
Wed07/04 05:00 am 2.59 ft 166 cfs

North Fork station Details

Latest Readings

Last 100 Readings:
Mon06/25 09:15 am 3.39 ft 407 cfs
Mon06/25 09:00 am 3.4 ft 411 cfs
Mon06/25 08:45 am 3.4 ft 411 cfs
Mon06/25 08:30 am 3.38 ft 403 cfs
Mon06/25 08:15 am 3.39 ft 407 cfs
Mon06/25 08:00 am 3.37 ft 400 cfs
Mon06/25 07:45 am 3.37 ft 400 cfs
Mon06/25 07:30 am 3.35 ft 392 cfs
Mon06/25 07:15 am 3.36 ft 396 cfs
Mon06/25 07:00 am 3.34 ft 388 cfs
Mon06/25 06:45 am 3.34 ft 388 cfs
Mon06/25 06:30 am 3.33 ft 385 cfs
Mon06/25 06:15 am 3.36 ft 396 cfs
Mon06/25 06:00 am 3.34 ft 388 cfs
Mon06/25 05:45 am 3.35 ft 392 cfs
Mon06/25 05:30 am 3.34 ft 388 cfs
Mon06/25 05:15 am 3.34 ft 388 cfs
Mon06/25 05:00 am 3.33 ft 385 cfs
Mon06/25 04:45 am 3.34 ft 388 cfs
Mon06/25 04:30 am 3.33 ft 385 cfs
Mon06/25 04:15 am 3.33 ft 385 cfs
Mon06/25 04:00 am 3.33 ft 385 cfs
Mon06/25 03:45 am 3.34 ft 388 cfs
Mon06/25 03:30 am 3.33 ft 385 cfs
Mon06/25 03:15 am 3.34 ft 388 cfs
Mon06/25 03:00 am 3.34 ft 388 cfs
Mon06/25 02:45 am 3.34 ft 388 cfs
Mon06/25 02:30 am 3.34 ft 388 cfs
Mon06/25 02:15 am 3.34 ft 388 cfs
Mon06/25 02:00 am 3.34 ft 388 cfs
Mon06/25 01:45 am 3.33 ft 385 cfs
Mon06/25 01:30 am 3.33 ft 385 cfs
Mon06/25 01:15 am 3.31 ft 377 cfs
Mon06/25 01:00 am 3.29 ft 370 cfs
Mon06/25 12:45 am 3.29 ft 370 cfs
Mon06/25 12:30 am 3.27 ft 363 cfs
Mon06/25 12:15 am 3.24 ft 352 cfs
Mon06/25 12:00 am 3.2 ft 338 cfs
Sun06/24 11:45 pm 3.2 ft 338 cfs
Sun06/24 11:30 pm 3.16 ft 325 cfs
Sun06/24 11:15 pm 3.15 ft 321 cfs
Sun06/24 11:00 pm 3.12 ft 311 cfs
Sun06/24 10:45 pm 3.1 ft 305 cfs
Sun06/24 10:30 pm 3.08 ft 299 cfs
Sun06/24 10:15 pm 3.05 ft 289 cfs
Sun06/24 10:00 pm 3.04 ft 286 cfs
Sun06/24 09:45 pm 3.03 ft 283 cfs
Sun06/24 09:30 pm 3.02 ft 280 cfs
Sun06/24 09:15 pm 3.01 ft 277 cfs
Sun06/24 09:00 pm 3.0 ft 274 cfs
Sun06/24 08:45 pm 3.0 ft 274 cfs
Sun06/24 08:30 pm 2.99 ft 271 cfs
Sun06/24 08:15 pm 2.99 ft 271 cfs
Sun06/24 08:00 pm 2.99 ft 271 cfs
Sun06/24 07:45 pm 2.98 ft 268 cfs
Sun06/24 07:30 pm 2.98 ft 268 cfs
Sun06/24 07:15 pm 2.99 ft 271 cfs
Sun06/24 07:00 pm 2.99 ft 271 cfs
Sun06/24 06:45 pm 2.98 ft 268 cfs
Sun06/24 06:30 pm 2.98 ft 268 cfs
Sun06/24 06:15 pm 2.98 ft 268 cfs
Sun06/24 06:00 pm 2.99 ft 271 cfs
Sun06/24 05:45 pm 2.99 ft 271 cfs
Sun06/24 05:30 pm 2.99 ft 271 cfs
Sun06/24 05:15 pm 2.99 ft 271 cfs
Sun06/24 05:00 pm 3.0 ft 274 cfs
Sun06/24 04:45 pm 3.0 ft 274 cfs
Sun06/24 04:30 pm 3.0 ft 274 cfs
Sun06/24 04:15 pm 3.01 ft 277 cfs
Sun06/24 04:00 pm 3.01 ft 277 cfs
Sun06/24 03:45 pm 3.02 ft 280 cfs
Sun06/24 03:30 pm 3.01 ft 277 cfs
Sun06/24 03:15 pm 3.01 ft 277 cfs
Sun06/24 03:00 pm 3.03 ft 283 cfs
Sun06/24 02:45 pm 3.02 ft 280 cfs
Sun06/24 02:30 pm 3.03 ft 283 cfs
Sun06/24 02:15 pm 3.02 ft 280 cfs
Sun06/24 02:00 pm 3.03 ft 283 cfs
Sun06/24 01:45 pm 3.03 ft 283 cfs
Sun06/24 01:30 pm 3.04 ft 286 cfs
Sun06/24 01:15 pm 3.04 ft 286 cfs
Sun06/24 01:00 pm 3.05 ft 289 cfs
Sun06/24 12:45 pm 3.03 ft 283 cfs
Sun06/24 12:30 pm 3.04 ft 286 cfs
Sun06/24 12:15 pm 3.05 ft 289 cfs
Sun06/24 12:00 pm 3.06 ft 292 cfs
Sun06/24 11:45 am 3.05 ft 289 cfs
Sun06/24 11:30 am 3.06 ft 292 cfs
Sun06/24 11:15 am 3.06 ft 292 cfs
Sun06/24 11:00 am 3.07 ft 295 cfs
Sun06/24 10:45 am 3.06 ft 292 cfs
Sun06/24 10:30 am 3.07 ft 295 cfs
Sun06/24 10:15 am 3.08 ft 299 cfs
Sun06/24 10:00 am 3.07 ft 295 cfs
Sun06/24 09:45 am 3.07 ft 295 cfs
Sun06/24 09:30 am 3.08 ft 299 cfs
Sun06/24 09:15 am 3.09 ft 302 cfs
Sun06/24 09:00 am 3.09 ft 302 cfs
Sun06/24 08:45 am 3.08 ft 299 cfs
Sun06/24 08:30 am 3.09 ft 302 cfs

Latest Forecasts

Currently Forecasted Readings:
Mon06/25 11:00 am 3.44 ft 429 cfs
Mon06/25 05:00 pm 3.48 ft 443 cfs
Mon06/25 11:00 pm 3.49 ft 446 cfs
Tue06/26 05:00 am 3.45 ft 430 cfs
Tue06/26 11:00 am 3.35 ft 392 cfs
Tue06/26 05:00 pm 3.22 ft 344 cfs
Tue06/26 11:00 pm 3.14 ft 317 cfs
Wed06/27 05:00 am 3.08 ft 300 cfs
Wed06/27 11:00 am 3.04 ft 287 cfs
Wed06/27 05:00 pm 3.0 ft 273 cfs
Wed06/27 11:00 pm 2.97 ft 265 cfs
Thu06/28 05:00 am 2.96 ft 260 cfs
Thu06/28 11:00 am 2.92 ft 251 cfs
Thu06/28 05:00 pm 2.89 ft 241 cfs
Thu06/28 11:00 pm 2.86 ft 235 cfs
Fri06/29 05:00 am 2.88 ft 238 cfs
Fri06/29 11:00 am 2.88 ft 239 cfs
Fri06/29 05:00 pm 2.87 ft 237 cfs
Fri06/29 11:00 pm 2.85 ft 230 cfs
Sat06/30 05:00 am 2.82 ft 223 cfs
Sat06/30 11:00 am 2.79 ft 215 cfs
Sat06/30 05:00 pm 2.75 ft 206 cfs
Sat06/30 11:00 pm 2.73 ft 200 cfs
Sun07/01 05:00 am 2.71 ft 196 cfs
Sun07/01 11:00 am 2.69 ft 190 cfs
Sun07/01 05:00 pm 2.67 ft 185 cfs
Sun07/01 11:00 pm 2.65 ft 180 cfs
Mon07/02 05:00 am 2.63 ft 177 cfs
Mon07/02 11:00 am 2.62 ft 174 cfs
Mon07/02 05:00 pm 2.6 ft 170 cfs
Mon07/02 11:00 pm 2.6 ft 168 cfs
Tue07/03 05:00 am 2.6 ft 168 cfs
Tue07/03 11:00 am 2.59 ft 166 cfs
Tue07/03 05:00 pm 2.58 ft 164 cfs
Tue07/03 11:00 pm 2.58 ft 164 cfs
Wed07/04 05:00 am 2.59 ft 166 cfs
Wed07/04 11:00 am 2.59 ft 166 cfs
Wed07/04 05:00 pm 2.58 ft 164 cfs
Wed07/04 11:00 pm 2.58 ft 165 cfs
Thu07/05 05:00 am 2.6 ft 170 cfs

Snoqualmie River flood gauge data supplied by the
National Weather Service Northwest River Forecast Center.

Sign up for Floodzilla alerts.